Time;durP1;ratioP1;P1;durP2;ratioP2;P2;SDS_P1;SDS_P2;PMS_P1;PMS_P2;Temp;Humidity;BMP_temperature;BMP_pressure;BME280_temperature;BME280_humidity;BME280_pressure;Samples;Min_cycle;Max_cycle;Signal;HPM_P1;HPM_P2
2022/01/18 00:00:29;;;;;;;8.18;2.45;;;;;;;8.10;65.81;103204.72;5022577;28;20041;-79
2022/01/18 00:02:55;;;;;;;13.55;2.78;;;;;;;8.22;65.39;103205.97;5027639;28;20652;-79
2022/01/18 00:05:21;;;;;;;12.65;3.15;;;;;;;8.17;65.76;103211.84;5025540;28;20029;-78
2022/01/18 00:07:48;;;;;;;8.93;2.55;;;;;;;8.21;65.33;103206.78;5030179;28;20517;-79
2022/01/18 00:10:14;;;;;;;11.30;2.88;;;;;;;8.23;65.75;103212.91;5021004;28;20045;-79
2022/01/18 00:15:30;;;;;;;11.02;2.75;;;;;;;8.29;64.96;103217.38;5023453;28;20043;-79
2022/01/18 00:21:23;;;;;;;17.42;2.97;;;;;;;8.12;66.33;103218.59;5022087;28;20494;-79
2022/01/18 00:23:15;;;;;;;8.52;2.47;;;;;;;8.18;66.38;103227.41;5012572;28;20049;-79
2022/01/18 00:25:45;;;;;;;17.17;3.20;;;;;;;8.17;66.29;103229.97;5025691;28;20095;-79
2022/01/18 00:28:11;;;;;;;8.40;3.13;;;;;;;8.12;65.93;103226.34;5020658;28;20546;-79
2022/01/18 00:33:26;;;;;;;11.57;3.13;;;;;;;8.17;65.68;103240.34;5021092;28;20083;-79
2022/01/18 00:35:59;;;;;;;6.97;2.92;;;;;;;8.20;65.39;103249.06;5026484;28;20052;-79
2022/01/18 00:38:43;;;;;;;12.60;2.33;;;;;;;8.17;65.73;103254.16;5026827;28;20108;-79
2022/01/18 00:41:10;;;;;;;12.02;2.70;;;;;;;8.11;66.47;103251.41;5038615;28;20115;-79
2022/01/18 00:43:35;;;;;;;7.40;2.67;;;;;;;8.13;65.91;103249.72;5025187;28;20118;-78
2022/01/18 00:46:01;;;;;;;15.50;3.40;;;;;;;8.19;65.87;103249.00;5023158;28;20029;-79
2022/01/18 00:48:32;;;;;;;9.50;2.30;;;;;;;8.20;65.42;103261.13;5027474;28;20096;-79
2022/01/18 00:50:57;;;;;;;16.65;2.40;;;;;;;8.11;65.83;103255.69;5031152;28;20640;-79
2022/01/18 00:53:25;;;;;;;10.50;2.47;;;;;;;8.17;66.20;103253.28;5025332;28;20045;-79
2022/01/18 00:56:27;;;;;;;16.23;2.88;;;;;;;8.19;66.14;103256.78;5025247;28;20517;-79
2022/01/18 00:58:46;;;;;;;18.90;3.90;;;;;;;8.05;66.79;103263.28;5030397;28;20561;-79
2022/01/18 01:01:13;;;;;;;11.40;2.45;;;;;;;8.06;66.57;103265.00;5024675;28;20056;-79
2022/01/18 01:03:39;;;;;;;10.98;2.28;;;;;;;7.99;67.47;103266.56;5030925;28;20527;-79
2022/01/18 01:06:06;;;;;;;20.10;2.95;;;;;;;8.08;67.32;103260.78;5011988;28;20069;-79
2022/01/18 01:08:34;;;;;;;13.65;2.75;;;;;;;8.20;66.18;103258.53;5032405;28;20037;-79
2022/01/18 01:11:00;;;;;;;12.52;3.17;;;;;;;8.11;67.22;103266.03;5029639;28;20026;-79
2022/01/18 01:13:27;;;;;;;11.27;2.35;;;;;;;8.09;66.77;103265.97;5029547;28;20502;-79
2022/01/18 01:34:43;;;;;;;6.32;2.58;;;;;;;7.98;67.44;103262.22;5028070;28;20100;-79
2022/01/18 01:44:51;;;;;;;11.80;2.60;;;;;;;8.05;66.49;103271.03;5029962;28;20095;-79
2022/01/18 01:47:20;;;;;;;15.88;2.95;;;;;;;7.94;68.09;103272.44;5031192;28;20037;-79
2022/01/18 01:49:50;;;;;;;14.07;2.78;;;;;;;7.88;68.37;103272.25;5030995;28;20037;-79
2022/01/18 01:52:16;;;;;;;14.35;2.90;;;;;;;7.96;66.72;103271.66;5024552;28;20127;-79
2022/01/18 01:54:43;;;;;;;13.45;3.15;;;;;;;7.81;67.85;103288.41;5027133;28;20025;-79
2022/01/18 01:57:09;;;;;;;10.02;2.95;;;;;;;7.88;67.55;103282.63;5024454;28;20069;-79
2022/01/18 01:59:35;;;;;;;17.23;3.33;;;;;;;7.90;68.06;103293.88;5029438;28;20068;-79
2022/01/18 02:02:01;;;;;;;8.05;3.13;;;;;;;8.01;67.67;103288.19;5029307;28;20025;-79
2022/01/18 02:04:27;;;;;;;13.55;2.75;;;;;;;8.00;66.85;103283.84;5035789;28;20691;-79
2022/01/18 02:06:52;;;;;;;11.80;3.15;;;;;;;8.07;67.24;103280.59;5026506;28;20087;-79
2022/01/18 02:09:18;;;;;;;12.80;2.83;;;;;;;7.94;67.13;103275.88;5026525;28;20076;-79
2022/01/18 02:11:46;;;;;;;7.47;2.40;;;;;;;8.08;67.00;103276.31;5026558;28;20065;-79
2022/01/18 02:14:16;;;;;;;8.93;2.30;;;;;;;8.03;67.17;103278.75;5027116;28;20019;-79
2022/01/18 02:22:12;;;;;;;5.80;2.85;;;;;;;7.97;66.97;103281.16;5025448;28;20520;-79
2022/01/18 02:24:37;;;;;;;11.85;2.88;;;;;;;7.81;67.89;103280.66;5026010;28;20045;-79
2022/01/18 02:27:03;;;;;;;8.40;2.70;;;;;;;7.88;67.86;103273.13;5032644;28;20034;-79
2022/01/18 02:29:29;;;;;;;13.45;2.67;;;;;;;8.00;67.01;103275.22;5021742;28;20137;-79
2022/01/18 02:31:57;;;;;;;13.18;3.15;;;;;;;7.92;68.27;103279.25;5036630;28;20030;-79
2022/01/18 02:34:24;;;;;;;14.57;3.45;;;;;;;7.97;67.04;103264.78;5042625;28;20038;-79
2022/01/18 02:36:53;;;;;;;13.90;2.65;;;;;;;7.98;67.65;103271.69;5027817;28;20059;-79
2022/01/18 02:39:22;;;;;;;12.25;2.92;;;;;;;7.93;67.54;103271.56;5027547;28;20537;-79
2022/01/18 02:41:53;;;;;;;9.95;2.20;;;;;;;7.87;67.50;103268.78;5024200;28;20053;-79
2022/01/18 02:44:19;;;;;;;9.93;2.75;;;;;;;8.01;67.21;103266.59;5047649;28;20033;-79
2022/01/18 02:46:44;;;;;;;9.02;2.15;;;;;;;8.03;67.59;103265.81;5027649;28;20056;-79
2022/01/18 02:49:10;;;;;;;11.15;2.33;;;;;;;8.00;67.44;103270.03;5027277;28;20188;-79
2022/01/18 02:51:35;;;;;;;9.43;2.53;;;;;;;7.93;67.54;103263.78;5025587;28;20094;-79
2022/01/18 02:54:04;;;;;;;7.47;2.08;;;;;;;7.91;67.67;103268.03;5042597;28;20037;-79
2022/01/18 02:56:47;;;;;;;13.65;3.60;;;;;;;7.98;66.97;103267.38;5025609;28;20029;-79
2022/01/18 02:59:19;;;;;;;6.40;1.92;;;;;;;8.01;67.08;103270.06;5027260;28;20111;-79
2022/01/18 03:04:32;;;;;;;;;;;;;;;7.94;67.84;103265.53;5026077;28;20172;-79
2022/01/18 03:06:57;;;;;;;15.93;2.38;;;;;;;7.88;68.53;103277.44;5030197;28;19963;-79
2022/01/18 03:09:23;;;;;;;8.77;2.17;;;;;;;7.95;68.05;103267.28;5028297;28;20112;-79
2022/01/18 03:11:48;;;;;;;6.57;2.20;;;;;;;7.93;68.13;103262.91;5026379;28;20045;-79
2022/01/18 03:14:14;;;;;;;12.35;2.05;;;;;;;7.83;68.66;103269.53;5031200;28;20667;-79
2022/01/18 03:16:39;;;;;;;6.90;1.98;;;;;;;8.07;67.27;103261.59;5027601;28;20555;-79
2022/01/18 03:19:05;;;;;;;9.85;2.58;;;;;;;8.03;67.59;103262.34;5027506;28;20088;-79
2022/01/18 03:21:30;;;;;;;9.40;2.55;;;;;;;7.94;67.55;103259.50;5026007;28;20067;-78
2022/01/18 03:24:11;;;;;;;8.82;2.92;;;;;;;7.98;67.19;103262.22;5026164;28;20034;-79
2022/01/18 03:28:04;;;;;;;10.27;2.38;;;;;;;7.90;68.22;103265.41;5030588;28;20029;-79
2022/01/18 03:29:23;;;;;;;10.13;2.80;;;;;;;8.08;67.16;103263.38;5029009;28;20025;-79
2022/01/18 03:31:49;;;;;;;15.73;2.63;;;;;;;7.93;68.71;103268.09;5029363;28;20056;-79
2022/01/18 03:34:15;;;;;;;7.35;2.50;;;;;;;7.97;67.95;103260.44;5025575;28;20469;-79
2022/01/18 03:36:40;;;;;;;8.88;2.30;;;;;;;8.07;66.74;103259.91;5020979;28;20041;-79
2022/01/18 03:39:06;;;;;;;12.75;2.78;;;;;;;7.93;68.22;103261.22;5027760;28;20713;-79
2022/01/18 03:41:31;;;;;;;13.15;2.95;;;;;;;7.98;67.87;103263.91;5029687;28;20367;-79
2022/01/18 03:43:57;;;;;;;8.88;2.38;;;;;;;8.04;67.91;103264.09;5028413;28;20059;-79
2022/01/18 03:46:24;;;;;;;10.82;2.53;;;;;;;7.92;68.15;103268.91;5025929;28;20124;-79
2022/01/18 03:48:51;;;;;;;10.55;3.05;;;;;;;8.07;67.08;103261.59;5028600;28;21053;-79
2022/01/18 03:51:17;;;;;;;9.98;2.80;;;;;;;8.00;68.02;103257.09;5026663;28;20041;-79
2022/01/18 03:53:43;;;;;;;5.43;2.15;;;;;;;7.87;69.03;103262.72;5026218;28;20385;-79
2022/01/18 03:56:09;;;;;;;11.07;2.80;;;;;;;7.81;69.46;103260.84;5026371;28;20032;-79
2022/01/18 03:58:34;;;;;;;11.38;2.78;;;;;;;7.83;68.83;103255.69;5027390;28;20095;-79
2022/01/18 04:01:00;;;;;;;20.77;2.45;;;;;;;7.94;67.98;103268.13;5026489;28;20048;-79
2022/01/18 04:03:26;;;;;;;11.85;2.10;;;;;;;8.05;67.82;103273.63;5026595;28;20501;-79
2022/01/18 04:05:52;;;;;;;11.10;2.00;;;;;;;7.93;67.87;103270.69;5030485;28;20187;-79
2022/01/18 04:08:20;;;;;;;12.02;2.78;;;;;;;7.97;68.29;103278.56;5026366;28;20152;-79
2022/01/18 04:10:46;;;;;;;11.73;2.38;;;;;;;7.91;68.71;103280.97;5023971;28;20525;-79
2022/01/18 04:13:11;;;;;;;12.35;2.70;;;;;;;7.92;68.31;103282.75;5029306;28;20042;-79
2022/01/18 04:15:37;;;;;;;12.75;2.47;;;;;;;7.87;68.42;103275.66;5027513;28;20029;-79
2022/01/18 04:18:24;;;;;;;11.80;2.40;;;;;;;7.74;69.45;103282.19;5024798;28;20455;-79
2022/01/18 04:28:53;;;;;;;11.18;2.45;;;;;;;7.86;68.15;103289.44;5032961;28;20329;-79
2022/01/18 04:31:18;;;;;;;10.95;3.50;;;;;;;7.69;69.59;103291.53;5023793;28;20116;-79
2022/01/18 04:33:44;;;;;;;10.77;2.22;;;;;;;7.77;68.40;103295.22;5025470;28;20120;-79
2022/01/18 04:36:09;;;;;;;9.25;2.40;;;;;;;7.76;69.15;103297.75;5031071;28;20037;-79
2022/01/18 04:38:35;;;;;;;14.88;3.03;;;;;;;7.65;68.81;103292.25;5027472;28;20473;-79
2022/01/18 04:41:11;;;;;;;13.35;2.47;;;;;;;7.56;69.44;103290.25;5026119;28;20096;-79
2022/01/18 04:48:58;;;;;;;14.95;3.15;;;;;;;7.64;69.70;103288.78;5023022;28;22519;-79
2022/01/18 04:51:24;;;;;;;7.07;2.40;;;;;;;7.50;70.21;103281.41;5031730;28;20036;-79
2022/01/18 04:53:55;;;;;;;9.48;2.58;;;;;;;7.57;69.71;103286.84;5020112;28;20041;-79
2022/01/18 04:57:51;;;;;;;6.72;2.75;;;;;;;7.64;69.32;103280.16;5026660;28;20078;-79
2022/01/18 04:59:15;;;;;;;8.63;2.65;;;;;;;7.72;69.21;103289.03;5026870;28;20029;-79
2022/01/18 05:01:44;;;;;;;11.90;2.95;;;;;;;7.61;69.22;103291.25;5023427;28;20113;-79
2022/01/18 05:04:11;;;;;;;15.27;2.83;;;;;;;7.52;69.44;103290.13;5027475;28;20033;-79
2022/01/18 05:06:36;;;;;;;7.63;2.13;;;;;;;7.59;69.28;103294.63;5023473;28;20061;-79
2022/01/18 05:09:08;;;;;;;14.50;2.67;;;;;;;7.59;69.14;103294.63;5033122;28;20042;-79
2022/01/18 05:11:46;;;;;;;7.57;3.05;;;;;;;7.64;69.09;103295.69;5029038;28;20021;-79
2022/01/18 05:14:30;;;;;;;9.88;2.83;;;;;;;7.54;69.73;103293.63;5030101;28;20032;-79
2022/01/18 05:25:10;;;;;;;12.52;2.80;;;;;;;7.60;69.21;103305.03;4961334;28;20102;-79
2022/01/18 05:27:35;;;;;;;12.00;2.90;;;;;;;7.74;69.30;103304.56;4995716;28;20497;-79
2022/01/18 05:30:01;;;;;;;15.38;3.38;;;;;;;7.88;68.57;103304.16;5025887;28;20038;-79
2022/01/18 05:32:26;;;;;;;13.57;2.47;;;;;;;7.88;68.16;103300.72;5031298;28;20041;-79
2022/01/18 05:34:52;;;;;;;9.05;3.33;;;;;;;7.79;68.39;103306.47;5027716;28;20060;-79
2022/01/18 05:37:17;;;;;;;11.60;2.67;;;;;;;7.77;68.08;103308.16;5024595;28;20046;-79
2022/01/18 05:39:43;;;;;;;13.05;3.75;;;;;;;7.91;67.82;103296.50;5022929;28;20049;-79
2022/01/18 05:42:09;;;;;;;13.95;3.33;;;;;;;7.88;68.13;103300.72;5026693;28;20056;-79
2022/01/18 05:44:35;;;;;;;12.73;2.75;;;;;;;7.81;68.37;103303.94;5030653;28;20024;-79
2022/01/18 05:47:00;;;;;;;14.95;2.65;;;;;;;7.83;68.11;103307.44;5027259;28;20391;-79
2022/01/18 05:49:26;;;;;;;9.52;2.78;;;;;;;7.83;68.09;103310.91;5030410;28;20604;-79
2022/01/18 05:51:51;;;;;;;13.10;2.90;;;;;;;7.92;68.08;103310.31;5012638;28;20045;-79
2022/01/18 05:54:18;;;;;;;13.18;3.03;;;;;;;7.88;68.03;103305.91;5032770;28;20061;-79
2022/01/18 05:56:43;;;;;;;12.20;2.72;;;;;;;7.82;68.46;103313.47;5023709;28;20045;-79
2022/01/18 05:59:10;;;;;;;13.63;3.10;;;;;;;7.89;68.21;103318.88;5035920;28;20036;-79
2022/01/18 06:01:45;;;;;;;17.45;3.47;;;;;;;7.73;68.84;103314.06;5028352;28;20036;-75
2022/01/18 06:04:18;;;;;;;11.52;3.20;;;;;;;7.76;68.17;103321.06;5043274;28;20030;-75
2022/01/18 06:06:50;;;;;;;13.15;3.10;;;;;;;7.98;67.04;103316.56;5024363;28;20551;-75
2022/01/18 06:09:16;;;;;;;11.02;3.85;;;;;;;7.90;67.59;103327.53;5032927;28;20092;-76
2022/01/18 06:11:42;;;;;;;11.85;2.95;;;;;;;7.90;68.03;103328.41;5027141;28;20395;-75
2022/01/18 06:14:07;;;;;;;13.85;3.10;;;;;;;7.88;67.52;103330.03;5028694;28;20108;-75
2022/01/18 06:16:33;;;;;;;20.17;3.95;;;;;;;7.85;67.72;103332.53;5029845;28;20553;-75
2022/01/18 06:18:58;;;;;;;15.75;3.88;;;;;;;7.92;67.44;103334.50;5026695;28;20170;-76
2022/01/18 06:21:25;;;;;;;12.10;3.20;;;;;;;7.90;67.75;103343.06;5044364;28;20048;-76
2022/01/18 06:23:50;;;;;;;17.73;4.25;;;;;;;7.85;68.18;103339.44;5028314;28;20049;-76
2022/01/18 06:26:16;;;;;;;13.23;3.83;;;;;;;7.88;68.14;103332.63;5033256;28;20124;-76
2022/01/18 06:28:43;;;;;;;16.30;5.18;;;;;;;7.94;67.75;103329.38;5026199;28;20037;-75
2022/01/18 06:31:08;;;;;;;18.25;4.00;;;;;;;7.92;68.01;103325.84;5028014;28;20030;-76
2022/01/18 06:33:34;;;;;;;10.60;3.17;;;;;;;7.83;68.03;103328.16;5027066;28;20092;-75
2022/01/18 06:35:59;;;;;;;10.23;2.60;;;;;;;7.81;68.07;103330.72;5028606;28;20029;-75
2022/01/18 06:38:24;;;;;;;10.05;3.20;;;;;;;7.66;69.32;103330.22;5025964;28;20781;-76
2022/01/18 06:40:50;;;;;;;20.48;3.92;;;;;;;7.68;69.07;103336.31;5031369;28;20041;-76
2022/01/18 06:43:16;;;;;;;17.25;3.55;;;;;;;7.78;68.17;103340.97;5025137;28;20052;-75
2022/01/18 06:45:42;;;;;;;13.68;3.60;;;;;;;7.75;68.25;103348.63;5034265;28;20038;-76
2022/01/18 06:48:07;;;;;;;10.40;3.72;;;;;;;7.76;68.53;103337.44;5024292;28;20096;-75
2022/01/18 06:50:34;;;;;;;16.10;4.38;;;;;;;7.79;68.50;103342.69;5031401;28;20068;-76
2022/01/18 06:53:00;;;;;;;13.18;3.75;;;;;;;7.83;68.08;103344.56;5025643;28;20068;-75
2022/01/18 06:55:26;;;;;;;19.67;4.57;;;;;;;7.81;68.69;103338.47;5030298;28;20068;-75
2022/01/18 06:57:52;;;;;;;16.98;3.92;;;;;;;7.84;68.33;103343.75;5023172;28;20401;-75
2022/01/18 07:00:18;;;;;;;15.55;4.65;;;;;;;7.73;68.71;103352.88;5029158;28;20072;-75
2022/01/18 07:02:44;;;;;;;10.25;3.92;;;;;;;7.60;69.57;103354.19;5024920;28;20500;-75
2022/01/18 07:05:11;;;;;;;14.80;4.38;;;;;;;7.57;69.87;103355.78;5026635;28;20030;-76
2022/01/18 07:07:37;;;;;;;13.85;4.40;;;;;;;7.70;68.85;103358.81;5023058;28;20040;-75
2022/01/18 07:10:03;;;;;;;24.45;4.78;;;;;;;7.81;69.18;103353.13;5028917;28;20390;-75
2022/01/18 07:12:33;;;;;;;15.70;4.70;;;;;;;7.84;69.12;103359.28;5024862;28;20100;-75
2022/01/18 07:14:58;;;;;;;11.00;4.28;;;;;;;7.75;68.36;103358.97;5033019;28;20901;-75
2022/01/18 07:17:24;;;;;;;14.43;4.63;;;;;;;7.83;68.88;103365.25;5028881;28;20029;-75
2022/01/18 07:19:49;;;;;;;19.60;5.40;;;;;;;7.88;68.33;103371.44;5022269;28;20037;-75
2022/01/18 07:22:15;;;;;;;16.55;4.78;;;;;;;7.85;68.96;103362.75;5024172;28;20092;-75
2022/01/18 07:24:43;;;;;;;13.23;4.60;;;;;;;7.79;68.67;103376.34;5025606;28;20041;-75
2022/01/18 07:27:10;;;;;;;16.02;4.95;;;;;;;7.93;68.51;103372.50;5026864;28;20400;-76
2022/01/18 07:29:37;;;;;;;22.60;5.28;;;;;;;7.84;68.24;103369.63;5025309;28;20107;-76
2022/01/18 07:32:04;;;;;;;15.70;4.47;;;;;;;7.74;68.83;103371.84;5032382;28;20461;-75
2022/01/18 07:34:32;;;;;;;21.45;5.35;;;;;;;7.62;69.50;103374.91;5025116;28;20512;-76
2022/01/18 07:36:58;;;;;;;13.48;4.78;;;;;;;7.62;69.76;103377.50;5023805;28;20037;-76
2022/01/18 07:39:23;;;;;;;14.48;5.05;;;;;;;7.60;70.32;103380.06;5027564;28;20041;-76
2022/01/18 07:41:48;;;;;;;15.13;5.00;;;;;;;7.65;69.40;103375.91;5029254;28;20038;-76
2022/01/18 07:44:14;;;;;;;14.57;4.90;;;;;;;7.66;69.43;103369.91;5008621;28;20055;-76
2022/01/18 07:46:39;;;;;;;15.50;4.78;;;;;;;7.76;69.35;103375.38;5030414;28;20026;-76
2022/01/18 07:49:05;;;;;;;12.23;5.18;;;;;;;7.82;69.22;103368.66;5024443;28;20127;-75
2022/01/18 07:51:30;;;;;;;15.75;5.05;;;;;;;7.90;68.72;103371.53;5025410;28;20064;-75
2022/01/18 07:53:56;;;;;;;19.88;4.82;;;;;;;7.85;68.59;103384.28;5041052;28;20037;-76
2022/01/18 07:56:21;;;;;;;14.93;5.50;;;;;;;7.85;68.93;103383.44;5024710;28;20409;-76
2022/01/18 07:58:47;;;;;;;17.50;5.82;;;;;;;7.81;68.66;103387.63;5025115;28;20402;-75
2022/01/18 08:01:12;;;;;;;19.55;5.93;;;;;;;7.73;68.75;103383.06;5024368;28;20037;-75
2022/01/18 08:03:38;;;;;;;17.00;5.88;;;;;;;7.87;68.73;103390.41;5028738;28;20722;-76
2022/01/18 08:06:03;;;;;;;18.25;5.13;;;;;;;7.80;69.47;103391.03;5026469;28;20033;-75
2022/01/18 08:08:29;;;;;;;13.07;5.75;;;;;;;7.70;69.59;103392.44;5027130;28;20033;-76
2022/01/18 08:10:55;;;;;;;15.45;5.18;;;;;;;7.81;69.18;103394.50;5038802;28;20053;-76
2022/01/18 08:13:28;;;;;;;17.48;5.35;;;;;;;7.76;69.62;103398.69;5025569;28;20029;-76
2022/01/18 08:16:22;;;;;;;15.32;5.15;;;;;;;7.69;69.73;103395.00;5026875;28;20049;-76
2022/01/18 08:18:51;;;;;;;13.20;5.13;;;;;;;7.69;70.96;103397.59;5025061;28;20129;-75
2022/01/18 08:21:16;;;;;;;20.27;5.82;;;;;;;7.56;70.55;103390.25;5023878;28;20038;-76
2022/01/18 08:23:42;;;;;;;22.75;6.22;;;;;;;7.67;69.90;103391.50;5026451;28;20537;-76
2022/01/18 08:26:07;;;;;;;18.02;6.22;;;;;;;7.85;69.95;103386.03;5026045;28;20068;-75
2022/01/18 08:28:33;;;;;;;13.82;5.55;;;;;;;7.83;69.37;103385.97;5027267;28;20080;-76
2022/01/18 08:30:58;;;;;;;19.42;7.85;;;;;;;7.75;69.95;103387.44;5028145;28;20125;-76
2022/01/18 08:33:24;;;;;;;19.38;5.88;;;;;;;7.60;70.13;103387.81;5022364;28;20684;-75
2022/01/18 08:35:50;;;;;;;14.75;5.78;;;;;;;7.75;69.31;103386.56;5026623;28;20033;-75
2022/01/18 08:38:16;;;;;;;21.38;5.85;;;;;;;7.70;69.60;103383.84;5031588;28;20045;-76
2022/01/18 08:40:41;;;;;;;23.02;9.10;;;;;;;7.68;70.06;103385.47;5028386;28;20675;-75
2022/01/18 08:43:07;;;;;;;21.52;7.38;;;;;;;7.75;70.02;103387.44;5021284;28;20422;-76
2022/01/18 08:45:32;;;;;;;50.55;16.60;;;;;;;7.63;70.60;103392.22;5026942;28;20087;-76
2022/01/18 08:47:58;;;;;;;26.92;8.23;;;;;;;7.73;70.51;103395.97;5023439;28;20561;-75
2022/01/18 08:50:23;;;;;;;20.27;8.05;;;;;;;7.78;69.87;103397.00;5025989;28;20032;-76
2022/01/18 08:52:52;;;;;;;18.42;7.63;;;;;;;7.85;69.32;103399.81;5025381;28;20045;-76
2022/01/18 08:55:20;;;;;;;19.23;6.85;;;;;;;7.80;68.82;103395.34;5027678;28;20037;-75
2022/01/18 08:57:46;;;;;;;15.38;5.43;;;;;;;7.85;69.16;103393.78;5024400;28;20037;-75
2022/01/18 09:00:14;;;;;;;14.68;5.80;;;;;;;7.68;70.19;103399.28;5025922;28;20033;-76
2022/01/18 09:02:40;;;;;;;19.67;5.25;;;;;;;7.74;69.94;103408.06;5025706;28;20025;-76
2022/01/18 09:05:07;;;;;;;25.88;7.15;;;;;;;7.80;69.76;103403.97;5031350;28;20017;-75
2022/01/18 09:07:34;;;;;;;14.35;5.00;;;;;;;7.79;69.90;103403.94;5025201;28;20052;-76
2022/01/18 09:10:06;;;;;;;18.23;5.55;;;;;;;7.98;68.53;103406.28;5032211;28;20045;-78
2022/01/18 09:12:32;;;;;;;15.95;5.47;;;;;;;7.93;68.55;103406.16;5027730;28;20061;-82
2022/01/18 09:15:04;;;;;;;14.27;5.38;;;;;;;7.90;69.11;103412.94;5027141;28;20033;-82
2022/01/18 09:17:29;;;;;;;17.20;5.72;;;;;;;7.93;68.34;103416.50;5027197;28;20036;-82
2022/01/18 09:19:55;;;;;;;19.17;4.93;;;;;;;7.95;68.56;103417.41;5027138;28;20516;-82
2022/01/18 09:22:21;;;;;;;16.83;5.75;;;;;;;7.98;68.12;103414.94;5021389;28;20053;-81
2022/01/18 09:24:46;;;;;;;18.38;5.80;;;;;;;7.82;68.94;103420.41;5032585;28;20091;-82
2022/01/18 09:27:12;;;;;;;13.85;5.22;;;;;;;7.81;69.24;103429.03;5030919;28;20500;-82
2022/01/18 09:29:39;;;;;;;12.63;4.53;;;;;;;7.86;69.25;103431.75;5028405;28;20033;-81
2022/01/18 09:32:06;;;;;;;19.20;5.97;;;;;;;7.92;68.76;103429.38;5044658;28;20033;-82
2022/01/18 09:34:31;;;;;;;20.33;5.90;;;;;;;8.09;67.83;103431.66;5030059;28;20094;-82
2022/01/18 09:36:57;;;;;;;17.90;5.57;;;;;;;7.98;68.98;103434.75;5032650;28;20446;-81
2022/01/18 09:39:23;;;;;;;17.30;7.32;;;;;;;8.05;68.56;103435.00;5027943;28;20886;-82
2022/01/18 09:41:51;;;;;;;16.10;6.07;;;;;;;8.08;69.46;103437.69;5032157;28;20509;-82
2022/01/18 09:44:17;;;;;;;19.02;6.32;;;;;;;8.03;68.72;103428.00;5024845;28;20045;-82
2022/01/18 09:46:44;;;;;;;18.35;6.03;;;;;;;8.09;68.80;103429.06;5021782;28;20049;-81
2022/01/18 09:49:09;;;;;;;16.40;5.38;;;;;;;8.10;68.45;103430.84;5027897;28;20082;-81
2022/01/18 09:51:35;;;;;;;19.63;6.25;;;;;;;8.11;68.76;103434.31;5027399;28;20410;-82
2022/01/18 09:54:01;;;;;;;17.88;7.05;;;;;;;8.02;69.46;103439.19;5025857;28;20045;-81
2022/01/18 09:56:27;;;;;;;15.63;5.88;;;;;;;8.05;69.04;103437.59;5029402;28;20033;-82
2022/01/18 09:58:52;;;;;;;22.65;5.63;;;;;;;8.22;67.30;103431.22;5027487;28;20401;-82
2022/01/18 10:01:19;;;;;;;18.30;6.50;;;;;;;8.04;68.05;103432.34;5028526;28;20045;-82
2022/01/18 10:03:45;;;;;;;18.55;6.03;;;;;;;8.05;68.39;103429.84;5028325;28;20122;-81
2022/01/18 10:06:10;;;;;;;20.95;6.07;;;;;;;8.15;68.15;103431.84;5034772;28;20490;-81
2022/01/18 10:08:39;;;;;;;20.30;6.75;;;;;;;8.22;67.46;103423.47;5027740;28;20036;-81
2022/01/18 10:11:17;;;;;;;17.80;5.22;;;;;;;8.08;67.78;103424.75;5029776;28;20032;-81
2022/01/18 10:13:46;;;;;;;12.85;5.38;;;;;;;8.07;68.93;103425.56;5044784;28;20124;-82
2022/01/18 10:16:17;;;;;;;12.75;5.80;;;;;;;8.19;67.97;103422.47;5023779;28;20046;-81
2022/01/18 10:18:46;;;;;;;19.48;6.28;;;;;;;8.09;68.07;103426.50;5047019;28;20037;-81
2022/01/18 10:21:35;;;;;;;20.50;5.10;;;;;;;8.13;67.50;103425.75;5027216;28;20037;-82
2022/01/18 10:24:12;;;;;;;15.25;5.70;;;;;;;8.16;67.43;103427.56;5030335;28;20530;-81
2022/01/18 10:26:43;;;;;;;14.57;6.05;;;;;;;8.27;67.13;103430.50;5027251;28;20045;-81
2022/01/18 10:29:10;;;;;;;14.02;5.70;;;;;;;8.28;67.21;103420.19;5046573;28;20421;-82
2022/01/18 10:31:45;;;;;;;16.00;6.53;;;;;;;8.16;67.93;103432.75;5027554;28;20045;-82
2022/01/18 10:37:17;;;;;;;17.42;5.68;;;;;;;8.20;69.04;103426.84;5029356;28;20037;-81
2022/01/18 10:39:51;;;;;;;11.52;5.70;;;;;;;8.25;68.62;103420.97;5024780;28;20033;-82
2022/01/18 10:42:25;;;;;;;18.23;5.65;;;;;;;8.22;68.80;103418.28;5028788;28;20073;-81
2022/01/18 10:45:26;;;;;;;15.88;5.45;;;;;;;8.27;68.87;103419.28;5028470;28;20088;-81
2022/01/18 10:48:10;;;;;;;12.20;5.28;;;;;;;8.24;69.17;103413.13;5020466;28;20036;-81
2022/01/18 10:50:38;;;;;;;20.17;6.43;;;;;;;8.29;68.16;103414.19;5028534;28;20029;-81
2022/01/18 10:53:14;;;;;;;16.60;5.90;;;;;;;8.45;66.89;103410.34;5033518;28;20474;-81
2022/01/18 10:55:40;;;;;;;15.82;5.57;;;;;;;8.34;67.83;103409.16;5027678;28;20516;-81
2022/01/18 10:58:12;;;;;;;22.33;7.18;;;;;;;8.29;68.49;103411.59;5025286;28;20041;-81
2022/01/18 11:00:38;;;;;;;17.40;5.93;;;;;;;8.21;69.57;103406.16;5028707;28;20141;-82
2022/01/18 11:03:04;;;;;;;18.48;7.07;;;;;;;8.34;68.00;103397.09;5029404;28;20030;-82
2022/01/18 11:05:33;;;;;;;19.75;6.55;;;;;;;8.29;67.93;103400.34;5028295;28;20024;-81
2022/01/18 11:08:06;;;;;;;24.33;6.50;;;;;;;8.32;68.65;103397.84;5025682;28;20053;-82
2022/01/18 11:10:34;;;;;;;17.55;6.72;;;;;;;8.50;66.85;103399.31;5027540;28;20038;-81
2022/01/18 11:13:07;;;;;;;13.73;5.25;;;;;;;8.35;68.19;103395.38;5027783;28;20041;-82
2022/01/18 11:15:37;;;;;;;17.52;5.90;;;;;;;8.32;67.40;103390.06;5035689;28;20037;-81
2022/01/18 11:18:07;;;;;;;19.42;6.90;;;;;;;8.27;68.18;103390.81;5027021;28;20508;-82
2022/01/18 11:20:45;;;;;;;17.70;5.85;;;;;;;8.48;67.03;103385.41;5042402;28;20557;-82
2022/01/18 11:23:12;;;;;;;20.40;7.75;;;;;;;8.34;68.11;103388.44;5026940;28;20386;-81
2022/01/18 11:25:38;;;;;;;14.95;6.45;;;;;;;8.33;67.30;103390.16;5030154;28;20409;-82
2022/01/18 11:28:10;;;;;;;22.23;6.97;;;;;;;8.35;68.59;103390.19;5025363;28;20045;-81
2022/01/18 11:30:38;;;;;;;17.63;6.65;;;;;;;8.32;69.55;103385.78;5028029;28;20629;-82
2022/01/18 11:33:11;;;;;;;13.93;6.00;;;;;;;8.54;67.55;103377.81;5027973;28;20067;-81
2022/01/18 11:35:53;;;;;;;15.35;6.28;;;;;;;8.50;67.01;103380.28;5027852;28;20032;-81
2022/01/18 11:38:35;;;;;;;17.23;6.82;;;;;;;8.55;67.60;103381.28;5025503;28;20095;-81
2022/01/18 11:41:05;;;;;;;13.40;6.38;;;;;;;8.45;68.76;103389.63;5028552;28;20127;-82
2022/01/18 11:43:36;;;;;;;18.90;6.45;;;;;;;8.41;67.88;103373.16;5028880;28;20033;-82
2022/01/18 11:46:27;;;;;;;16.52;6.75;;;;;;;8.49;66.88;103370.75;5026091;28;20042;-82
2022/01/18 11:49:30;;;;;;;15.77;6.50;;;;;;;8.58;66.49;103371.91;5029873;28;20042;-82
2022/01/18 11:52:04;;;;;;;15.65;6.00;;;;;;;8.45;67.23;103371.50;4961971;28;21680;-81
2022/01/18 11:57:22;;;;;;;22.92;6.75;;;;;;;8.46;68.87;103373.25;5028069;28;20045;-81
2022/01/18 12:00:04;;;;;;;14.70;5.93;;;;;;;8.52;67.72;103360.47;5026110;28;20815;-82
2022/01/18 12:02:41;;;;;;;22.30;7.38;;;;;;;8.61;67.35;103358.16;5030837;28;20493;-81
2022/01/18 12:05:14;;;;;;;20.98;6.68;;;;;;;8.62;68.14;103354.75;5024905;28;20038;-81
2022/01/18 12:07:41;;;;;;;15.20;6.20;;;;;;;8.69;66.75;103356.66;5033180;28;20141;-81
2022/01/18 12:10:07;;;;;;;22.42;7.35;;;;;;;8.59;67.84;103350.31;5026236;28;20041;-82
2022/01/18 12:12:50;;;;;;;18.45;7.05;;;;;;;8.72;66.27;103351.56;5032951;28;20037;-81
2022/01/18 12:15:16;;;;;;;18.30;6.57;;;;;;;8.61;67.69;103352.97;5024119;28;20445;-82
2022/01/18 12:17:50;;;;;;;18.70;7.20;;;;;;;8.63;67.63;103349.59;5029652;28;20037;-81
2022/01/18 12:20:34;;;;;;;23.33;6.50;;;;;;;8.63;66.87;103340.94;5030939;28;20026;-82
2022/01/18 12:23:05;;;;;;;16.23;7.32;;;;;;;8.66;66.92;103346.19;5028237;28;20465;-82
2022/01/18 12:28:46;;;;;;;23.13;7.50;;;;;;;8.55;67.74;103340.72;5029797;28;20400;-82
2022/01/18 12:31:52;;;;;;;20.85;8.00;;;;;;;8.73;66.66;103346.44;5025816;28;20033;-82
2022/01/18 12:34:38;;;;;;;15.98;6.88;;;;;;;8.80;65.50;103339.66;5029148;28;20037;-82
2022/01/18 12:37:24;;;;;;;16.20;7.43;;;;;;;8.71;66.68;103336.88;5027500;28;20125;-81
2022/01/18 12:40:11;;;;;;;21.95;7.25;;;;;;;8.61;67.91;103329.66;5026872;28;20505;-81
2022/01/18 12:45:32;;;;;;;17.30;7.68;;;;;;;8.67;67.08;103322.06;5035362;28;20036;-82
2022/01/18 12:48:09;;;;;;;20.17;7.68;;;;;;;8.72;66.93;103325.63;5026452;28;20033;-82
2022/01/18 12:50:42;;;;;;;17.17;7.95;;;;;;;8.71;67.05;103316.97;5034547;28;20025;-81